Time;durP1;ratioP1;P1;durP2;ratioP2;P2;SDS_P1;SDS_P2;PMS_P1;PMS_P2;Temp;Humidity;BMP_temperature;BMP_pressure;BME280_temperature;BME280_humidity;BME280_pressure;Samples;Min_cycle;Max_cycle;Signal;HPM_P1;HPM_P2
2022/06/18 00:00:50;;;;;;;3.63;3.33;;;20.10;92.40;;;;;;4975859;28;20423;-67
2022/06/18 00:03:16;;;;;;;3.00;2.70;;;20.10;91.90;;;;;;4978124;28;20462;-67
2022/06/18 00:05:44;;;;;;;4.10;3.80;;;20.10;92.60;;;;;;4973828;28;20462;-67
2022/06/18 00:08:21;;;;;;;3.77;3.47;;;20.10;93.30;;;;;;4975531;28;20442;-67
2022/06/18 00:13:39;;;;;;;4.67;4.37;;;20.00;92.40;;;;;;4972797;28;20443;-67
2022/06/18 00:13:42;;;;;;;3.60;3.40;;;20.00;92.50;;;;;;4988243;28;20491;-67
2022/06/18 00:16:18;;;;;;;3.50;3.20;;;20.00;92.70;;;;;;4982471;28;20511;-67
2022/06/18 00:18:43;;;;;;;3.47;2.80;;;20.00;92.20;;;;;;4977275;28;20192;-67
2022/06/18 00:21:15;;;;;;;4.30;3.40;;;19.90;93.20;;;;;;4984289;28;20504;-67
2022/06/18 00:23:40;;;;;;;4.20;3.90;;;20.00;94.10;;;;;;4986166;28;20207;-67
2022/06/18 00:26:06;;;;;;;4.47;3.20;;;19.80;94.50;;;;;;4981726;28;20463;-67
2022/06/18 00:28:32;;;;;;;3.90;3.43;;;19.80;94.50;;;;;;4983747;28;20192;-67
2022/06/18 00:30:59;;;;;;;4.13;3.77;;;19.90;94.20;;;;;;4975761;28;20204;-67
2022/06/18 00:33:25;;;;;;;4.03;3.63;;;19.90;93.40;;;;;;4972983;28;20490;-67
2022/06/18 00:35:52;;;;;;;4.93;3.33;;;19.90;93.40;;;;;;4985923;28;20447;-67
2022/06/18 00:38:24;;;;;;;3.80;3.40;;;20.00;93.50;;;;;;4979411;28;20438;-67
2022/06/18 00:40:51;;;;;;;4.23;3.93;;;19.90;93.50;;;;;;4984866;28;20466;-67
2022/06/18 00:43:22;;;;;;;3.90;3.60;;;19.90;94.00;;;;;;4983446;28;20466;-67
2022/06/18 00:45:50;;;;;;;3.10;2.90;;;19.80;95.50;;;;;;4984532;28;20470;-67
2022/06/18 00:48:27;;;;;;;3.87;3.23;;;19.70;95.80;;;;;;4981962;28;20453;-67
2022/06/18 00:50:59;;;;;;;3.60;3.03;;;19.80;95.30;;;;;;4976014;28;20574;-67
2022/06/18 00:53:36;;;;;;;4.50;4.20;;;19.80;94.90;;;;;;4986927;28;20470;-71
2022/06/18 00:56:10;;;;;;;6.43;4.20;;;19.80;94.30;;;;;;4982094;28;20446;-67
2022/06/18 00:58:59;;;;;;;4.00;3.70;;;19.80;94.00;;;;;;4976534;28;20781;-67
2022/06/18 01:01:31;;;;;;;7.00;3.30;;;19.80;93.70;;;;;;4968203;28;20450;-67
2022/06/18 01:03:57;;;;;;;3.83;3.47;;;19.80;93.40;;;;;;4980509;28;20459;-68
2022/06/18 01:06:27;;;;;;;3.93;3.73;;;19.80;93.30;;;;;;4977463;28;20832;-67
2022/06/18 01:09:00;;;;;;;3.60;3.33;;;19.80;93.60;;;;;;4984698;28;20186;-67
2022/06/18 01:11:29;;;;;;;5.07;4.10;;;19.80;93.30;;;;;;4976312;28;20467;-67
2022/06/18 01:13:57;;;;;;;3.60;3.30;;;19.80;93.90;;;;;;4972746;28;20459;-67
2022/06/18 01:16:24;;;;;;;4.83;4.03;;;19.80;94.00;;;;;;4978658;28;20533;-67
2022/06/18 01:18:50;;;;;;;3.53;3.33;;;19.80;93.80;;;;;;4975060;28;20444;-68
2022/06/18 01:21:45;;;;;;;3.83;3.63;;;19.80;94.10;;;;;;4971849;28;20555;-67
2022/06/18 01:24:13;;;;;;;4.03;3.63;;;19.70;94.30;;;;;;4966124;28;20463;-67
2022/06/18 01:26:39;;;;;;;3.40;3.20;;;19.80;94.20;;;;;;4973466;28;20550;-68
2022/06/18 01:29:04;;;;;;;4.03;3.80;;;19.70;94.10;;;;;;4971450;28;20435;-67
2022/06/18 01:31:31;;;;;;;4.23;3.93;;;19.70;94.30;;;;;;4969396;28;20506;-67
2022/06/18 01:33:57;;;;;;;6.07;5.50;;;19.70;94.80;;;;;;4971030;28;20585;-67
2022/06/18 01:36:23;;;;;;;4.73;4.33;;;19.60;95.10;;;;;;4971682;28;20509;-67
2022/06/18 01:38:49;;;;;;;4.17;3.93;;;19.50;95.50;;;;;;4972210;28;20886;-68
2022/06/18 01:44:06;;;;;;;3.90;3.70;;;19.60;96.50;;;;;;4972567;28;20282;-67
2022/06/18 01:46:35;;;;;;;4.50;4.20;;;19.50;97.00;;;;;;4972180;28;20471;-67
2022/06/18 01:49:05;;;;;;;4.30;4.00;;;19.40;97.10;;;;;;4970470;28;20522;-67
2022/06/18 01:51:36;;;;;;;5.33;3.57;;;19.40;97.60;;;;;;4970566;28;20981;-67
2022/06/18 01:54:14;;;;;;;4.00;3.57;;;19.40;98.20;;;;;;4972194;28;20996;-67
2022/06/18 01:56:45;;;;;;;4.27;3.97;;;19.40;98.40;;;;;;4972493;28;20443;-67
2022/06/18 01:59:17;;;;;;;4.77;4.20;;;19.40;98.50;;;;;;4971452;28;20996;-67
2022/06/18 02:01:45;;;;;;;4.30;3.90;;;19.40;98.70;;;;;;4971519;28;20439;-67
2022/06/18 02:04:13;;;;;;;4.97;4.60;;;19.30;98.90;;;;;;4977606;28;20960;-68
2022/06/18 02:06:39;;;;;;;4.40;4.10;;;19.30;99.50;;;;;;4970688;28;20467;-67
2022/06/18 02:09:11;;;;;;;4.43;3.97;;;19.30;99.40;;;;;;4971867;28;20439;-67
2022/06/18 02:11:37;;;;;;;4.37;3.97;;;19.40;99.60;;;;;;4970851;28;20908;-67
2022/06/18 02:14:06;;;;;;;4.63;4.00;;;19.30;99.70;;;;;;4969916;28;20541;-68
2022/06/18 02:16:38;;;;;;;4.33;4.03;;;19.30;99.90;;;;;;4971029;28;20266;-67
2022/06/18 02:19:06;;;;;;;4.57;4.17;;;19.20;99.90;;;;;;4971412;28;20451;-68
2022/06/18 02:21:38;;;;;;;4.53;4.33;;;19.30;99.90;;;;;;4970419;28;20534;-67
2022/06/18 02:24:04;;;;;;;4.30;4.00;;;19.20;99.90;;;;;;4976830;28;20503;-67
2022/06/18 02:26:30;;;;;;;4.17;3.87;;;19.20;99.90;;;;;;4970843;28;20510;-67
2022/06/18 02:28:57;;;;;;;4.63;4.23;;;19.10;99.90;;;;;;4972148;28;20188;-67
2022/06/18 02:31:28;;;;;;;4.17;3.87;;;19.10;99.90;;;;;;4971689;28;20242;-67
2022/06/18 02:33:58;;;;;;;5.30;5.00;;;19.10;99.90;;;;;;4970958;28;20483;-67
2022/06/18 02:36:25;;;;;;;4.37;4.07;;;19.00;99.90;;;;;;4971937;28;20486;-67
2022/06/18 02:38:58;;;;;;;4.40;4.10;;;19.00;99.90;;;;;;4970234;28;20867;-67
2022/06/18 02:41:24;;;;;;;4.43;4.13;;;19.00;99.90;;;;;;4970175;28;20464;-67
2022/06/18 02:43:51;;;;;;;5.23;3.97;;;18.90;99.90;;;;;;4969922;28;20468;-67
2022/06/18 02:46:17;;;;;;;4.43;4.13;;;18.90;99.90;;;;;;4971097;28;20510;-68
2022/06/18 02:48:43;;;;;;;4.67;4.37;;;19.00;99.90;;;;;;4970146;28;20455;-68
2022/06/18 02:51:11;;;;;;;4.83;4.33;;;18.90;99.90;;;;;;4971484;28;20810;-68
2022/06/18 02:53:37;;;;;;;5.17;4.77;;;18.90;99.90;;;;;;4969376;28;20254;-67
2022/06/18 02:56:05;;;;;;;5.27;4.77;;;18.80;99.90;;;;;;4971196;28;20487;-68
2022/06/18 02:58:32;;;;;;;5.40;5.00;;;18.80;99.90;;;;;;4968280;28;20584;-67
2022/06/18 03:01:01;;;;;;;4.40;4.00;;;18.80;99.90;;;;;;4967560;28;20452;-68
2022/06/18 03:03:33;;;;;;;4.47;4.17;;;18.80;99.90;;;;;;4970779;28;20482;-67
2022/06/18 03:05:58;;;;;;;4.30;4.00;;;18.70;99.90;;;;;;4970144;28;20471;-67
2022/06/18 03:08:26;;;;;;;4.33;4.03;;;18.70;99.90;;;;;;4969189;28;20537;-68
2022/06/18 03:13:36;;;;;;;4.50;4.20;;;18.70;99.90;;;;;;4969737;28;20503;-68
2022/06/18 03:16:04;;;;;;;5.80;5.30;;;18.70;99.90;;;;;;4969883;28;20455;-68
2022/06/18 03:18:30;;;;;;;5.10;4.70;;;18.70;99.90;;;;;;4969347;28;20447;-67
2022/06/18 03:21:06;;;;;;;4.53;4.03;;;18.60;99.90;;;;;;4970289;28;20510;-68
2022/06/18 03:23:32;;;;;;;4.60;4.23;;;18.60;99.90;;;;;;4968619;28;20530;-67
2022/06/18 03:25:58;;;;;;;4.57;4.27;;;18.60;99.90;;;;;;4967552;28;20969;-67
2022/06/18 03:28:26;;;;;;;4.57;4.27;;;18.70;99.90;;;;;;4974205;28;20531;-67
2022/06/18 03:30:51;;;;;;;4.57;4.27;;;18.70;99.90;;;;;;4976339;28;20227;-68
2022/06/18 03:33:17;;;;;;;5.03;4.73;;;18.70;99.90;;;;;;4987965;28;20977;-68
2022/06/18 03:35:45;;;;;;;4.57;4.27;;;18.80;99.90;;;;;;4980878;28;20188;-68
2022/06/18 03:38:13;;;;;;;5.17;4.80;;;18.80;99.90;;;;;;4975373;28;20196;-67
2022/06/18 03:40:39;;;;;;;4.50;4.20;;;18.80;99.90;;;;;;4977583;28;20447;-67
2022/06/18 03:43:04;;;;;;;4.40;4.10;;;18.80;99.90;;;;;;4975005;28;20471;-67
2022/06/18 03:45:34;;;;;;;4.23;4.03;;;18.80;99.90;;;;;;4972708;28;20480;-67
2022/06/18 03:48:00;;;;;;;4.87;4.47;;;18.80;99.90;;;;;;4974063;28;20243;-67
2022/06/18 03:50:26;;;;;;;5.07;4.73;;;18.80;99.90;;;;;;4972459;28;20439;-67
2022/06/18 03:52:52;;;;;;;4.73;4.37;;;18.80;99.90;;;;;;4973544;28;20200;-67
2022/06/18 03:55:18;;;;;;;4.70;4.40;;;18.90;99.90;;;;;;4972565;28;20191;-67
2022/06/18 03:57:43;;;;;;;4.80;4.40;;;18.90;99.90;;;;;;4972778;28;20451;-67
2022/06/18 04:00:16;;;;;;;4.87;4.40;;;18.90;99.90;;;;;;4973846;28;20463;-68
2022/06/18 04:02:42;;;;;;;4.20;4.00;;;19.00;99.90;;;;;;4973615;28;20196;-68
2022/06/18 04:05:09;;;;;;;4.60;4.30;;;19.00;99.90;;;;;;4974339;28;20618;-68
2022/06/18 04:07:36;;;;;;;4.60;3.87;;;18.90;99.90;;;;;;4972499;28;20582;-68
2022/06/18 04:10:02;;;;;;;5.63;5.13;;;19.00;99.90;;;;;;4972393;28;20443;-67
2022/06/18 04:12:29;;;;;;;5.97;5.47;;;19.00;99.90;;;;;;4974096;28;20439;-68
2022/06/18 04:14:54;;;;;;;7.30;6.70;;;19.10;99.90;;;;;;4972416;28;20468;-68
2022/06/18 04:17:20;;;;;;;5.47;5.07;;;19.10;99.90;;;;;;4973015;28;20443;-68
2022/06/18 04:19:47;;;;;;;5.10;4.80;;;19.20;99.90;;;;;;4972665;28;20573;-68
2022/06/18 04:22:12;;;;;;;6.50;4.50;;;19.40;99.90;;;;;;4972558;28;20456;-68
2022/06/18 04:24:38;;;;;;;4.40;4.00;;;19.40;99.90;;;;;;4971708;28;20463;-68
2022/06/18 04:27:04;;;;;;;4.80;4.43;;;19.60;99.90;;;;;;4974308;28;20196;-68
2022/06/18 04:29:31;;;;;;;4.43;4.23;;;19.70;99.90;;;;;;4972041;28;20180;-68
2022/06/18 04:31:56;;;;;;;4.73;4.47;;;19.80;99.90;;;;;;4970954;28;20979;-68
2022/06/18 04:34:22;;;;;;;4.90;4.60;;;19.90;99.90;;;;;;4972966;28;20468;-68
2022/06/18 04:36:47;;;;;;;5.10;4.60;;;20.00;99.90;;;;;;4973651;28;20183;-68
2022/06/18 04:39:13;;;;;;;5.67;5.20;;;20.00;99.90;;;;;;4973096;28;20180;-68
2022/06/18 04:41:39;;;;;;;5.80;5.30;;;20.00;99.90;;;;;;4971971;28;20267;-68
2022/06/18 04:44:04;;;;;;;5.80;5.40;;;19.90;99.90;;;;;;4972120;28;20238;-68
2022/06/18 04:46:30;;;;;;;4.80;4.50;;;20.00;99.90;;;;;;4972833;28;20302;-68
2022/06/18 04:48:56;;;;;;;5.87;5.17;;;20.10;99.90;;;;;;4972438;28;20620;-68
2022/06/18 04:51:21;;;;;;;5.37;4.90;;;20.10;99.90;;;;;;4970103;28;20180;-68
2022/06/18 04:53:47;;;;;;;6.00;5.23;;;20.10;99.90;;;;;;4971550;28;20224;-68
2022/06/18 04:56:13;;;;;;;5.13;4.83;;;20.20;99.90;;;;;;4973854;28;20195;-68
2022/06/18 04:58:39;;;;;;;5.20;4.87;;;20.30;99.90;;;;;;4970635;28;20188;-68
2022/06/18 05:01:04;;;;;;;5.63;4.80;;;20.60;99.90;;;;;;4972566;28;20664;-68
2022/06/18 05:03:30;;;;;;;5.77;5.27;;;20.70;99.90;;;;;;4971490;28;20370;-68
2022/06/18 05:05:56;;;;;;;6.37;4.53;;;21.00;99.90;;;;;;4972296;28;20690;-68
2022/06/18 05:08:22;;;;;;;5.83;5.13;;;21.10;99.90;;;;;;4970996;28;20279;-68
2022/06/18 05:10:47;;;;;;;4.13;3.83;;;21.30;99.90;;;;;;4974450;28;20997;-68
2022/06/18 05:13:13;;;;;;;7.93;4.10;;;21.40;99.90;;;;;;4979199;28;20243;-68
2022/06/18 05:15:40;;;;;;;4.93;4.63;;;21.60;99.90;;;;;;4971210;28;20248;-68
2022/06/18 05:18:06;;;;;;;4.50;4.20;;;21.80;99.90;;;;;;4964988;28;20630;-68
2022/06/18 05:20:32;;;;;;;7.90;4.40;;;21.90;99.90;;;;;;4971170;28;20953;-68
2022/06/18 05:22:57;;;;;;;5.10;4.80;;;22.00;99.90;;;;;;4972149;28;20455;-68
2022/06/18 05:25:23;;;;;;;4.93;4.53;;;22.10;99.90;;;;;;4971108;28;20279;-68
2022/06/18 05:27:49;;;;;;;5.60;5.17;;;22.30;99.90;;;;;;4979204;28;20180;-68
2022/06/18 05:30:18;;;;;;;4.77;4.47;;;22.50;99.90;;;;;;4976119;28;20188;-68
2022/06/18 05:32:44;;;;;;;4.80;4.50;;;22.40;99.90;;;;;;4973332;28;20269;-68
2022/06/18 05:35:11;;;;;;;4.97;4.43;;;22.50;99.90;;;;;;4971776;28;20514;-68
2022/06/18 05:37:38;;;;;;;5.03;4.70;;;22.60;99.90;;;;;;4970830;28;20447;-68
2022/06/18 05:40:04;;;;;;;6.80;5.00;;;22.80;99.90;;;;;;4971927;28;20933;-68
2022/06/18 05:42:30;;;;;;;6.73;5.20;;;22.90;99.90;;;;;;4970475;28;20444;-68
2022/06/18 05:44:56;;;;;;;5.33;5.03;;;23.10;99.90;;;;;;4976511;28;20478;-68
2022/06/18 05:47:25;;;;;;;4.90;4.60;;;23.30;99.90;;;;;;4971346;28;20805;-68
2022/06/18 05:49:51;;;;;;;4.90;4.50;;;23.50;99.90;;;;;;4968283;28;20208;-68
2022/06/18 05:52:18;;;;;;;5.70;5.10;;;23.60;99.90;;;;;;4970946;28;20443;-68
2022/06/18 05:54:43;;;;;;;5.77;5.33;;;23.80;99.90;;;;;;4974965;28;20475;-68
2022/06/18 05:57:09;;;;;;;5.00;4.70;;;23.90;99.90;;;;;;4973375;28;20509;-68
2022/06/18 05:59:35;;;;;;;5.47;5.07;;;24.10;99.80;;;;;;4978558;28;20222;-68
2022/06/18 06:02:00;;;;;;;9.60;5.50;;;24.30;99.80;;;;;;4982630;28;20822;-68
2022/06/18 06:04:28;;;;;;;5.67;5.30;;;24.40;99.40;;;;;;4980435;28;20211;-68
2022/06/18 06:06:54;;;;;;;4.80;4.40;;;24.60;99.30;;;;;;4978939;28;20195;-68
2022/06/18 06:12:11;;;;;;;5.73;5.23;;;24.60;97.70;;;;;;4984179;28;20509;-68
2022/06/18 06:14:38;;;;;;;5.50;5.10;;;24.60;96.60;;;;;;4977306;28;20497;-68
2022/06/18 06:17:04;;;;;;;6.90;5.20;;;24.50;97.20;;;;;;4982033;28;20442;-68
2022/06/18 06:19:30;;;;;;;4.83;4.53;;;24.60;96.40;;;;;;4983718;28;20439;-68
2022/06/18 06:21:56;;;;;;;4.63;4.40;;;24.50;96.70;;;;;;4987354;28;20435;-68
2022/06/18 06:24:21;;;;;;;6.80;5.20;;;24.60;96.30;;;;;;4985396;28;20466;-68
2022/06/18 06:26:47;;;;;;;6.03;5.43;;;24.70;96.00;;;;;;4977846;28;20611;-68
2022/06/18 06:29:12;;;;;;;5.57;5.10;;;24.70;95.80;;;;;;4984724;28;20187;-68
2022/06/18 06:31:38;;;;;;;6.07;5.50;;;24.70;95.40;;;;;;4978313;28;20194;-68
2022/06/18 06:34:04;;;;;;;5.67;5.27;;;24.80;95.70;;;;;;4968164;28;20334;-68
2022/06/18 06:36:29;;;;;;;5.20;4.80;;;24.90;95.20;;;;;;4964286;28;20271;-68
2022/06/18 06:38:55;;;;;;;6.23;5.63;;;25.10;95.50;;;;;;4979784;28;20204;-68
2022/06/18 06:41:25;;;;;;;5.03;4.63;;;25.30;94.80;;;;;;4973763;28;20195;-69
2022/06/18 06:43:51;;;;;;;4.93;4.63;;;25.60;93.90;;;;;;4968978;28;20207;-69
2022/06/18 06:46:18;;;;;;;6.20;4.10;;;25.70;93.10;;;;;;4966875;28;20482;-70
2022/06/18 06:48:44;;;;;;;5.00;4.70;;;25.90;93.40;;;;;;4976531;28;20455;-68
2022/06/18 06:51:16;;;;;;;5.60;5.10;;;26.30;94.00;;;;;;4975458;28;20446;-68
2022/06/18 06:53:42;;;;;;;4.90;4.33;;;26.60;94.20;;;;;;4976377;28;20965;-67
2022/06/18 06:58:54;;;;;;;7.00;5.80;;;27.20;92.90;;;;;;4977639;28;20499;-68
2022/06/18 07:01:19;;;;;;;4.83;4.53;;;27.20;93.50;;;;;;4971267;28;20479;-68
2022/06/18 07:03:45;;;;;;;6.63;5.00;;;27.30;92.50;;;;;;4974402;28;20296;-67
2022/06/18 07:06:10;;;;;;;5.40;5.10;;;27.30;92.10;;;;;;4968570;28;20262;-69
2022/06/18 07:08:36;;;;;;;4.93;4.50;;;27.30;91.80;;;;;;4966716;28;20216;-69
2022/06/18 07:11:02;;;;;;;5.43;4.80;;;27.50;91.50;;;;;;4969637;28;20634;-70
2022/06/18 07:13:28;;;;;;;4.70;4.30;;;27.60;91.10;;;;;;4981413;28;20684;-70
2022/06/18 07:15:54;;;;;;;5.07;4.70;;;27.70;91.10;;;;;;4977365;28;20834;-70
2022/06/18 07:18:23;;;;;;;4.93;4.63;;;28.00;91.10;;;;;;4978299;28;20889;-67
2022/06/18 07:20:49;;;;;;;7.67;4.90;;;28.10;90.60;;;;;;4975917;28;20435;-71
2022/06/18 07:23:15;;;;;;;4.80;4.40;;;28.20;89.90;;;;;;4983138;28;20810;-72
2022/06/18 07:25:41;;;;;;;7.13;6.53;;;28.30;90.10;;;;;;4971809;28;20208;-70
2022/06/18 07:28:07;;;;;;;5.13;4.63;;;28.30;90.00;;;;;;4970666;28;20440;-70
2022/06/18 07:30:34;;;;;;;4.60;4.30;;;28.50;87.80;;;;;;4970363;28;20498;-70
2022/06/18 07:33:00;;;;;;;5.27;4.87;;;28.80;87.10;;;;;;4973376;28;20210;-70
2022/06/18 07:35:31;;;;;;;4.77;3.93;;;28.60;85.30;;;;;;4979759;28;20444;-70
2022/06/18 07:37:58;;;;;;;5.57;5.07;;;28.40;85.90;;;;;;4971074;28;20264;-71
2022/06/18 07:40:25;;;;;;;5.10;4.70;;;28.30;85.10;;;;;;4976791;28;20451;-70
2022/06/18 07:42:53;;;;;;;8.53;5.00;;;28.70;83.70;;;;;;4971396;28;20475;-70
2022/06/18 07:45:23;;;;;;;5.97;5.33;;;29.00;82.60;;;;;;4981673;28;20518;-71
2022/06/18 07:47:49;;;;;;;4.17;3.87;;;29.10;80.10;;;;;;4971102;28;20436;-71
2022/06/18 07:50:16;;;;;;;4.23;3.80;;;29.50;74.90;;;;;;4980365;28;20485;-70
2022/06/18 07:52:44;;;;;;;4.57;4.30;;;29.60;75.00;;;;;;4970689;28;20466;-70
2022/06/18 07:55:15;;;;;;;4.90;4.10;;;29.90;74.70;;;;;;4978888;28;20459;-70
2022/06/18 07:57:42;;;;;;;3.97;3.67;;;30.00;74.00;;;;;;4968679;28;20475;-71
2022/06/18 08:00:09;;;;;;;4.70;4.30;;;30.20;73.20;;;;;;4968925;28;20551;-70
2022/06/18 08:02:39;;;;;;;3.67;3.47;;;30.50;71.30;;;;;;4970627;28;20523;-70
2022/06/18 08:05:06;;;;;;;3.53;3.33;;;30.60;70.10;;;;;;4978902;28;20470;-70
2022/06/18 08:07:32;;;;;;;3.80;3.60;;;30.80;68.80;;;;;;4969128;28;20443;-70
2022/06/18 08:09:57;;;;;;;4.00;3.70;;;31.00;68.40;;;;;;4978638;28;20814;-67
2022/06/18 08:12:23;;;;;;;4.43;3.93;;;31.10;66.10;;;;;;4974356;28;20267;-70
2022/06/18 08:14:48;;;;;;;3.80;3.43;;;31.20;64.80;;;;;;4983067;28;20234;-70
2022/06/18 08:17:14;;;;;;;3.93;3.63;;;31.30;64.80;;;;;;4974127;28;20728;-70
2022/06/18 08:19:39;;;;;;;3.47;3.27;;;31.30;64.50;;;;;;4979050;28;20180;-70
2022/06/18 08:22:05;;;;;;;4.10;3.80;;;31.40;64.50;;;;;;4980280;28;20180;-70
2022/06/18 08:24:31;;;;;;;3.17;3.03;;;31.60;64.00;;;;;;4981196;28;20227;-70
2022/06/18 08:26:57;;;;;;;3.67;3.37;;;31.70;63.30;;;;;;4974967;28;20187;-70
2022/06/18 08:29:25;;;;;;;4.03;3.73;;;32.00;61.40;;;;;;4980454;28;20253;-71
2022/06/18 08:31:51;;;;;;;3.63;3.33;;;32.00;60.80;;;;;;4974667;28;20181;-67
2022/06/18 08:34:16;;;;;;;3.50;3.30;;;32.10;59.90;;;;;;4973351;28;20877;-67
2022/06/18 08:36:43;;;;;;;3.57;3.37;;;32.30;59.90;;;;;;4972297;28;20557;-70
2022/06/18 08:39:09;;;;;;;3.63;3.33;;;32.60;59.90;;;;;;4977334;28;20177;-68
2022/06/18 08:41:49;;;;;;;3.27;3.07;;;32.80;59.50;;;;;;4972076;28;20482;-68
2022/06/18 08:44:51;;;;;;;3.50;3.30;;;32.90;59.20;;;;;;4978325;28;20834;-67
2022/06/18 08:47:47;;;;;;;4.17;3.87;;;33.10;59.00;;;;;;4966300;28;20450;-68
2022/06/18 08:50:39;;;;;;;3.43;3.13;;;33.40;58.00;;;;;;4975430;28;20439;-68
2022/06/18 08:53:26;;;;;;;3.70;3.50;;;33.60;57.50;;;;;;4972260;28;20836;-67
2022/06/18 08:56:04;;;;;;;3.87;3.47;;;33.40;56.80;;;;;;4978724;28;20440;-68
2022/06/18 08:58:36;;;;;;;3.90;3.60;;;33.60;56.80;;;;;;4973086;28;20857;-68
2022/06/18 09:01:30;;;;;;;3.60;3.27;;;33.70;56.30;;;;;;4978709;28;20487;-70
2022/06/18 09:04:04;;;;;;;3.90;3.60;;;33.00;56.50;;;;;;4965941;28;20842;-70
2022/06/18 09:06:44;;;;;;;3.10;3.00;;;33.20;57.00;;;;;;4971522;28;20499;-70
2022/06/18 09:09:55;;;;;;;3.43;3.00;;;33.40;55.90;;;;;;4973017;28;20522;-68
2022/06/18 09:12:35;;;;;;;3.33;3.07;;;33.90;55.40;;;;;;4969778;28;20544;-68
2022/06/18 09:15:15;;;;;;;2.70;2.50;;;33.90;54.40;;;;;;4975363;28;20510;-68
2022/06/18 09:17:59;;;;;;;3.47;3.17;;;34.00;54.90;;;;;;4972607;28;20995;-68
2022/06/18 09:20:32;;;;;;;4.33;2.70;;;33.70;53.90;;;;;;4972362;28;20447;-68
2022/06/18 09:23:04;;;;;;;2.30;2.10;;;33.80;52.10;;;;;;4973801;28;20447;-68
2022/06/18 09:25:35;;;;;;;3.10;2.10;;;34.00;49.90;;;;;;4975955;28;20465;-68
2022/06/18 09:28:05;;;;;;;2.67;2.43;;;34.30;49.30;;;;;;4973518;28;20960;-68
2022/06/18 09:30:34;;;;;;;3.10;2.90;;;34.40;50.30;;;;;;4975780;28;20427;-68
2022/06/18 09:33:05;;;;;;;3.30;2.90;;;34.30;51.50;;;;;;4978315;28;22511;-67
2022/06/18 09:35:39;;;;;;;2.50;2.30;;;33.90;51.50;;;;;;4969613;28;20429;-67
2022/06/18 09:38:11;;;;;;;3.03;2.83;;;34.00;50.90;;;;;;4971726;28;20951;-69
2022/06/18 09:40:51;;;;;;;3.10;2.90;;;34.30;51.00;;;;;;4975391;28;20506;-68
2022/06/18 09:43:25;;;;;;;3.17;2.87;;;34.80;51.10;;;;;;4977032;28;20525;-68
2022/06/18 09:45:54;;;;;;;2.20;2.10;;;35.20;50.50;;;;;;4974260;28;20575;-68
2022/06/18 09:48:19;;;;;;;3.00;2.90;;;35.70;48.00;;;;;;4975327;28;20498;-68
2022/06/18 09:50:49;;;;;;;2.77;2.67;;;35.90;50.20;;;;;;4973459;28;20546;-68
2022/06/18 09:53:30;;;;;;;2.33;2.23;;;36.10;49.40;;;;;;4989201;28;20470;-68
2022/06/18 09:56:02;;;;;;;3.27;2.63;;;36.40;47.60;;;;;;4982818;28;20451;-68
2022/06/18 09:58:35;;;;;;;4.50;4.10;;;35.70;47.50;;;;;;4972281;28;20506;-68
2022/06/18 10:01:01;;;;;;;2.60;2.40;;;36.30;48.20;;;;;;4979587;28;20498;-68
2022/06/18 10:09:21;;;;;;;2.23;2.13;;;36.90;48.10;;;;;;4968117;28;20454;-68
2022/06/18 10:11:48;;;;;;;4.70;2.30;;;37.50;45.80;;;;;;4979195;28;20603;-68
2022/06/18 10:14:20;;;;;;;3.30;2.57;;;37.70;45.00;;;;;;4971763;28;20693;-68
2022/06/18 10:16:57;;;;;;;3.30;3.00;;;38.40;45.50;;;;;;4971219;28;20493;-68
2022/06/18 10:19:43;;;;;;;2.80;2.60;;;38.90;44.50;;;;;;4973253;28;20451;-68
2022/06/18 10:22:43;;;;;;;3.73;3.30;;;39.60;43.30;;;;;;4956198;28;20451;-67
2022/06/18 10:25:41;;;;;;;2.10;2.00;;;39.80;43.80;;;;;;4967182;28;20471;-67
2022/06/18 10:28:35;;;;;;;2.37;2.27;;;40.30;40.30;;;;;;4969242;28;20514;-67
2022/06/18 10:31:09;;;;;;;3.73;2.43;;;41.10;41.20;;;;;;4981241;28;20859;-67
2022/06/18 10:33:44;;;;;;;3.20;3.00;;;41.00;40.70;;;;;;4979597;28;20834;-67
2022/06/18 10:36:20;;;;;;;2.63;2.53;;;39.10;41.40;;;;;;4970608;28;20442;-67
2022/06/18 10:38:49;;;;;;;2.50;2.30;;;38.20;41.60;;;;;;4983089;28;20481;-67
2022/06/18 10:41:33;;;;;;;4.93;3.10;;;39.40;41.50;;;;;;4979519;28;20450;-67
2022/06/18 10:43:58;;;;;;;2.60;2.50;;;41.00;40.70;;;;;;4982680;28;21041;-67
2022/06/18 10:46:24;;;;;;;2.70;2.50;;;41.50;39.20;;;;;;4983693;28;20587;-67
2022/06/18 10:49:03;;;;;;;2.30;2.20;;;42.70;38.70;;;;;;4981226;28;20628;-69
2022/06/18 10:51:33;;;;;;;2.97;2.87;;;42.70;38.50;;;;;;4971987;28;20435;-67
2022/06/18 10:54:00;;;;;;;3.00;2.80;;;42.90;38.00;;;;;;4977452;28;20522;-64
2022/06/18 10:56:32;;;;;;;3.67;3.03;;;41.60;37.90;;;;;;4984154;28;21010;-65
2022/06/18 10:59:00;;;;;;;3.10;2.90;;;41.70;38.20;;;;;;4980584;28;20446;-67
2022/06/18 11:01:34;;;;;;;3.00;2.90;;;41.90;37.70;;;;;;4980544;28;20443;-67
2022/06/18 11:04:05;;;;;;;3.17;2.80;;;42.00;36.20;;;;;;4970287;28;20911;-67
2022/06/18 11:06:31;;;;;;;2.43;2.13;;;42.90;36.30;;;;;;4968708;28;20468;-66
2022/06/18 11:09:00;;;;;;;3.53;2.93;;;44.70;34.50;;;;;;4979578;28;20438;-68
2022/06/18 11:11:29;;;;;;;2.77;2.60;;;45.80;27.70;;;;;;4969636;28;20486;-69
2022/06/18 11:14:06;;;;;;;2.30;2.20;;;45.40;26.90;;;;;;4978153;28;20510;-68
2022/06/18 11:16:42;;;;;;;2.90;2.53;;;45.50;26.70;;;;;;4972862;28;20451;-68
2022/06/18 11:19:25;;;;;;;2.63;2.50;;;43.40;27.20;;;;;;4962674;28;21020;-68
2022/06/18 11:21:52;;;;;;;3.43;3.17;;;43.40;28.10;;;;;;4964363;28;20436;-69
2022/06/18 11:24:26;;;;;;;2.83;2.63;;;44.00;27.70;;;;;;4965277;28;20808;-69
2022/06/18 11:26:56;;;;;;;2.67;2.57;;;43.80;27.60;;;;;;4974659;28;21066;-69
2022/06/18 11:29:28;;;;;;;3.37;3.07;;;45.00;27.00;;;;;;4966815;28;20821;-69
2022/06/18 11:31:57;;;;;;;5.50;2.93;;;46.00;27.10;;;;;;4969832;28;20965;-70
2022/06/18 11:34:32;;;;;;;2.97;2.87;;;45.90;26.10;;;;;;4964697;28;20521;-67
2022/06/18 11:36:59;;;;;;;3.13;2.90;;;46.50;26.30;;;;;;4965545;28;20440;-67
2022/06/18 11:39:35;;;;;;;5.50;3.73;;;43.80;26.00;;;;;;4973878;28;20502;-67
2022/06/18 11:42:08;;;;;;;3.67;3.30;;;43.80;26.60;;;;;;4967830;28;20792;-67
2022/06/18 11:44:47;;;;;;;4.07;3.03;;;43.70;26.00;;;;;;4967655;28;20578;-67
2022/06/18 11:47:20;;;;;;;3.67;2.90;;;41.90;26.70;;;;;;4973182;28;20984;-67
2022/06/18 11:50:01;;;;;;;5.20;3.20;;;43.20;27.10;;;;;;4973486;28;20459;-67
2022/06/18 11:52:39;;;;;;;9.97;3.73;;;44.80;26.30;;;;;;4966172;28;20446;-67
2022/06/18 11:55:25;;;;;;;5.03;3.30;;;45.80;26.30;;;;;;4974550;28;20475;-67
2022/06/18 11:58:09;;;;;;;5.20;3.90;;;45.30;25.80;;;;;;4978238;28;20486;-67
2022/06/18 12:00:52;;;;;;;4.27;3.20;;;44.30;26.40;;;;;;4978728;28;20445;-67
2022/06/18 12:03:48;;;;;;;3.83;3.53;;;46.50;26.00;;;;;;4978009;28;20583;-66
2022/06/18 12:06:26;;;;;;;8.97;4.00;;;45.90;25.90;;;;;;4977692;28;20473;-67
2022/06/18 12:08:52;;;;;;;4.47;2.93;;;45.10;26.10;;;;;;4981817;28;20445;-67
2022/06/18 12:11:41;;;;;;;3.87;3.43;;;45.20;26.20;;;;;;4976677;28;20529;-67
2022/06/18 12:14:24;;;;;;;7.40;3.60;;;47.00;25.80;;;;;;4974457;28;20462;-67
2022/06/18 12:17:11;;;;;;;8.47;3.93;;;46.40;25.80;;;;;;4974732;28;20435;-67
2022/06/18 12:19:47;;;;;;;11.73;4.80;;;47.10;25.40;;;;;;4969046;28;20447;-67
2022/06/18 12:22:40;;;;;;;7.23;4.73;;;47.10;25.00;;;;;;4965380;28;20447;-67
2022/06/18 12:25:33;;;;;;;12.20;5.20;;;46.10;25.90;;;;;;4969372;28;20481;-66
2022/06/18 12:28:15;;;;;;;6.73;3.60;;;47.50;25.50;;;;;;4975106;28;20546;-66
2022/06/18 12:31:06;;;;;;;5.60;4.00;;;48.60;25.40;;;;;;4985208;28;20885;-66
2022/06/18 12:34:03;;;;;;;8.83;4.83;;;46.80;26.00;;;;;;4952970;28;20561;-66
2022/06/18 12:37:12;;;;;;;7.37;4.80;;;45.30;26.90;;;;;;4968592;28;20446;-66
2022/06/18 12:39:58;;;;;;;5.73;4.30;;;45.00;26.90;;;;;;4937470;29;20485;-66
2022/06/18 12:42:46;;;;;;;7.87;4.90;;;45.90;26.40;;;;;;4968469;28;20446;-66
2022/06/18 12:45:45;;;;;;;8.57;4.83;;;47.60;26.00;;;;;;4973660;28;20469;-66
2022/06/18 12:48:28;;;;;;;8.93;4.63;;;45.60;25.70;;;;;;4971730;28;20474;-65
2022/06/18 12:51:19;;;;;;;5.33;4.00;;;44.00;27.00;;;;;;4972008;28;20440;-66
2022/06/18 12:54:09;;;;;;;7.80;4.70;;;44.60;26.90;;;;;;4972553;28;20486;-66
2022/06/18 12:56:44;;;;;;;9.63;5.10;;;46.00;26.10;;;;;;4978993;28;20845;-66
2022/06/18 12:59:34;;;;;;;8.53;5.17;;;47.60;25.90;;;;;;4964673;28;20447;-66
2022/06/18 13:02:11;;;;;;;7.20;5.07;;;48.50;25.60;;;;;;4972351;28;20808;-66
2022/06/18 13:04:53;;;;;;;8.87;4.87;;;49.50;25.10;;;;;;4974229;28;20463;-67
2022/06/18 13:07:30;;;;;;;6.97;4.53;;;48.50;25.10;;;;;;4971455;28;20858;-66
2022/06/18 13:10:03;;;;;;;4.83;4.30;;;47.80;25.90;;;;;;4971577;28;20505;-66
2022/06/18 13:12:44;;;;;;;8.30;4.37;;;44.80;26.70;;;;;;4969280;28;20471;-66
2022/06/18 13:15:37;;;;;;;9.77;5.50;;;44.60;27.10;;;;;;4973532;28;20435;-66
2022/06/18 13:18:22;;;;;;;10.63;4.60;;;45.50;26.70;;;;;;4973923;28;20443;-66
2022/06/18 13:20:51;;;;;;;13.30;6.00;;;46.40;26.30;;;;;;4970615;28;20432;-66
2022/06/18 13:29:03;;;;;;;7.20;4.93;;;44.80;27.00;;;;;;4976112;28;21015;-66